Time;durP1;ratioP1;P1;durP2;ratioP2;P2;SDS_P1;SDS_P2;PMS_P1;PMS_P2;Temp;Humidity;BMP_temperature;BMP_pressure;BME280_temperature;BME280_humidity;BME280_pressure;Samples;Min_cycle;Max_cycle;Signal;HPM_P1;HPM_P2
2023/04/06 00:01:12;;;;;;;17.70;13.95;;;;;;;;;;4986334;28;98247;-77
2023/04/06 00:03:38;;;;;;;20.40;13.38;;;;;;;;;;4987030;28;100099;-77
2023/04/06 00:06:05;;;;;;;18.00;12.88;;;;;;;;;;4976453;28;100399;-78
2023/04/06 00:08:32;;;;;;;19.27;13.88;;;;;;;;;;4950914;28;99034;-77
2023/04/06 00:10:58;;;;;;;19.30;13.32;;;;;;;;;;4950492;28;99528;-76
2023/04/06 00:13:25;;;;;;;17.90;13.05;;;;;;;;;;4960007;28;100089;-76
2023/04/06 00:15:51;;;;;;;15.98;13.10;;;;;;;;;;4970316;28;98325;-76
2023/04/06 00:18:17;;;;;;;16.25;13.88;;;;;;;;;;4974038;28;98653;-77
2023/04/06 00:20:44;;;;;;;17.15;13.25;;;;;;;;;;4970727;28;98218;-76
2023/04/06 00:23:10;;;;;;;19.50;14.20;;;;;;;;;;4969844;28;98738;-76
2023/04/06 00:25:36;;;;;;;18.88;13.80;;;;;;;;;;4969839;28;99104;-76
2023/04/06 00:28:03;;;;;;;19.70;13.90;;;;;;;;;;4970406;28;98734;-76
2023/04/06 00:30:30;;;;;;;25.65;14.52;;;;;;;;;;4969320;28;100292;-76
2023/04/06 00:32:56;;;;;;;25.05;14.27;;;;;;;;;;4970501;28;98789;-76
2023/04/06 00:35:23;;;;;;;20.42;14.70;;;;;;;;;;4969645;28;98298;-76
2023/04/06 00:37:49;;;;;;;19.63;13.77;;;;;;;;;;4968555;28;99397;-77
2023/04/06 00:40:16;;;;;;;19.38;13.68;;;;;;;;;;4972549;28;101056;-76
2023/04/06 00:42:42;;;;;;;18.88;14.15;;;;;;;;;;4971069;28;98862;-76
2023/04/06 00:45:09;;;;;;;17.83;14.23;;;;;;;;;;4968029;28;98920;-76
2023/04/06 00:47:36;;;;;;;20.60;13.85;;;;;;;;;;4970673;28;98312;-76
2023/04/06 00:50:02;;;;;;;17.20;14.32;;;;;;;;;;4969611;28;98577;-76
2023/04/06 00:52:29;;;;;;;17.52;12.82;;;;;;;;;;4969751;28;98961;-76
2023/04/06 00:54:55;;;;;;;20.38;13.30;;;;;;;;;;4977030;28;98368;-76
2023/04/06 00:57:22;;;;;;;16.15;13.85;;;;;;;;;;4972853;28;101248;-76
2023/04/06 00:59:53;;;;;;;20.45;14.00;;;;;;;;;;4967415;28;101272;-76
2023/04/06 01:02:20;;;;;;;19.50;13.75;;;;;;;;;;4972407;28;98342;-76
2023/04/06 01:04:49;;;;;;;17.30;13.75;;;;;;;;;;4972332;28;100901;-76
2023/04/06 01:07:25;;;;;;;16.70;12.57;;;;;;;;;;4969484;28;98331;-77
2023/04/06 01:10:08;;;;;;;17.95;13.30;;;;;;;;;;4968712;28;99746;-76
2023/04/06 01:12:38;;;;;;;21.27;13.70;;;;;;;;;;4984218;28;100943;-76
2023/04/06 01:15:10;;;;;;;17.80;13.40;;;;;;;;;;4984008;28;98240;-76
2023/04/06 01:17:41;;;;;;;15.90;12.73;;;;;;;;;;4968657;28;99642;-76
2023/04/06 01:20:12;;;;;;;24.55;14.07;;;;;;;;;;4966919;28;101455;-76
2023/04/06 01:22:39;;;;;;;22.33;13.40;;;;;;;;;;4989518;28;98340;-76
2023/04/06 01:25:06;;;;;;;15.80;13.18;;;;;;;;;;4989055;28;98878;-76
2023/04/06 01:27:52;;;;;;;13.90;12.35;;;;;;;;;;4988309;28;99467;-76
2023/04/06 01:30:39;;;;;;;18.55;12.93;;;;;;;;;;4985205;28;98615;-77
2023/04/06 01:33:13;;;;;;;18.63;12.18;;;;;;;;;;4990157;28;99032;-76
2023/04/06 01:35:57;;;;;;;20.90;12.82;;;;;;;;;;4988386;28;98595;-76
2023/04/06 01:38:24;;;;;;;17.33;13.27;;;;;;;;;;4982076;28;98311;-76
2023/04/06 01:40:50;;;;;;;16.33;12.70;;;;;;;;;;4967875;28;99006;-76
2023/04/06 01:43:20;;;;;;;15.40;12.32;;;;;;;;;;4967636;28;99436;-76
2023/04/06 01:46:00;;;;;;;14.15;12.65;;;;;;;;;;4971211;28;98623;-76
2023/04/06 01:48:32;;;;;;;22.33;13.43;;;;;;;;;;4968905;28;98078;-76
2023/04/06 01:51:01;;;;;;;20.38;12.68;;;;;;;;;;4967930;28;99698;-76
2023/04/06 01:53:32;;;;;;;20.98;13.35;;;;;;;;;;4967839;28;101895;-76
2023/04/06 01:56:03;;;;;;;18.77;12.68;;;;;;;;;;4967874;28;98732;-76
2023/04/06 01:58:33;;;;;;;15.85;12.50;;;;;;;;;;4970019;28;98291;-76
2023/04/06 02:01:00;;;;;;;19.88;13.73;;;;;;;;;;4967558;28;101228;-76
2023/04/06 02:03:34;;;;;;;18.17;12.25;;;;;;;;;;4967019;28;98695;-76
2023/04/06 02:06:06;;;;;;;23.48;12.43;;;;;;;;;;4983301;28;98520;-76
2023/04/06 02:08:37;;;;;;;18.70;12.63;;;;;;;;;;4979455;28;99011;-76
2023/04/06 02:11:03;;;;;;;18.40;13.13;;;;;;;;;;4967777;28;98775;-76
2023/04/06 02:13:37;;;;;;;15.40;12.35;;;;;;;;;;4968069;28;101544;-76
2023/04/06 02:16:04;;;;;;;16.00;12.10;;;;;;;;;;4966805;28;98878;-76
2023/04/06 02:18:30;;;;;;;14.32;12.13;;;;;;;;;;4969441;28;98454;-76
2023/04/06 02:20:57;;;;;;;17.85;12.02;;;;;;;;;;4967575;28;101730;-76
2023/04/06 02:23:23;;;;;;;18.27;12.85;;;;;;;;;;4970702;28;98246;-76
2023/04/06 02:25:50;;;;;;;21.90;12.75;;;;;;;;;;4967568;28;100240;-76
2023/04/06 02:28:16;;;;;;;16.60;12.55;;;;;;;;;;4969011;28;98996;-76
2023/04/06 02:30:42;;;;;;;16.08;12.52;;;;;;;;;;4970589;28;98368;-76
2023/04/06 02:33:10;;;;;;;15.25;11.85;;;;;;;;;;4967532;28;98539;-76
2023/04/06 02:35:44;;;;;;;17.48;11.88;;;;;;;;;;4969066;28;98398;-76
2023/04/06 02:38:10;;;;;;;21.27;11.93;;;;;;;;;;4968925;28;98577;-76
2023/04/06 02:40:37;;;;;;;19.63;12.43;;;;;;;;;;4968597;28;99946;-76
2023/04/06 02:43:19;;;;;;;13.23;11.13;;;;;;;;;;4967989;28;98330;-76
2023/04/06 02:45:48;;;;;;;16.83;12.50;;;;;;;;;;4969186;28;100741;-76
2023/04/06 02:48:15;;;;;;;15.88;11.90;;;;;;;;;;4988381;28;101534;-75
2023/04/06 02:50:41;;;;;;;15.10;11.27;;;;;;;;;;4990815;28;98524;-76
2023/04/06 02:53:08;;;;;;;17.75;11.85;;;;;;;;;;4996298;28;99859;-76
2023/04/06 02:55:36;;;;;;;11.63;10.43;;;;;;;;;;5008241;28;98201;-76
2023/04/06 02:58:02;;;;;;;14.07;12.32;;;;;;;;;;4992432;28;100883;-76
2023/04/06 03:00:37;;;;;;;13.52;11.77;;;;;;;;;;4988239;28;101617;-76
2023/04/06 03:03:03;;;;;;;14.18;10.40;;;;;;;;;;4981470;28;98252;-76
2023/04/06 03:05:30;;;;;;;20.20;11.38;;;;;;;;;;4963775;28;98414;-76
2023/04/06 03:07:56;;;;;;;17.02;11.48;;;;;;;;;;4963506;28;100955;-76
2023/04/06 03:10:34;;;;;;;14.60;11.02;;;;;;;;;;4964320;28;98914;-76
2023/04/06 03:13:00;;;;;;;21.38;10.48;;;;;;;;;;4966259;28;101135;-76
2023/04/06 03:15:48;;;;;;;15.95;10.43;;;;;;;;;;4969192;28;101965;-76
2023/04/06 03:18:20;;;;;;;13.05;10.27;;;;;;;;;;4966889;28;100315;-76
2023/04/06 03:20:47;;;;;;;12.90;10.07;;;;;;;;;;4965749;28;99874;-76
2023/04/06 03:23:15;;;;;;;12.07;9.30;;;;;;;;;;4966636;28;98345;-76
2023/04/06 03:25:44;;;;;;;19.65;10.98;;;;;;;;;;4966752;28;100769;-76
2023/04/06 03:28:15;;;;;;;15.20;10.73;;;;;;;;;;4968214;28;99504;-76
2023/04/06 03:30:54;;;;;;;13.82;10.35;;;;;;;;;;4966650;28;98065;-76
2023/04/06 03:33:36;;;;;;;10.60;9.00;;;;;;;;;;4966202;28;99022;-76
2023/04/06 03:36:03;;;;;;;16.38;10.20;;;;;;;;;;4971367;28;99027;-76
2023/04/06 03:38:33;;;;;;;15.63;9.88;;;;;;;;;;4967747;28;100358;-76
2023/04/06 03:41:03;;;;;;;14.55;10.88;;;;;;;;;;4965606;28;100144;-76
2023/04/06 03:43:29;;;;;;;13.60;9.50;;;;;;;;;;4967693;28;98274;-76
2023/04/06 03:45:55;;;;;;;17.52;9.68;;;;;;;;;;4969245;28;99506;-76
2023/04/06 03:48:22;;;;;;;19.75;9.93;;;;;;;;;;4969468;28;101653;-76
2023/04/06 03:50:48;;;;;;;14.90;9.70;;;;;;;;;;4969902;28;98238;-77
2023/04/06 03:53:15;;;;;;;12.52;10.18;;;;;;;;;;4970247;28;100426;-77
2023/04/06 03:55:41;;;;;;;12.30;9.50;;;;;;;;;;4977618;28;99110;-76
2023/04/06 03:58:07;;;;;;;14.43;9.90;;;;;;;;;;4994387;28;98200;-76
2023/04/06 04:00:34;;;;;;;15.35;9.68;;;;;;;;;;4990432;28;100053;-77
2023/04/06 04:03:01;;;;;;;11.55;9.55;;;;;;;;;;4975593;28;98303;-77
2023/04/06 04:05:28;;;;;;;14.00;10.38;;;;;;;;;;4951732;28;98424;-76
2023/04/06 04:07:55;;;;;;;12.35;10.45;;;;;;;;;;4951214;28;98831;-76
2023/04/06 04:10:25;;;;;;;12.77;10.18;;;;;;;;;;4965356;28;98288;-76
2023/04/06 04:12:51;;;;;;;14.38;9.85;;;;;;;;;;4981672;28;98590;-76
2023/04/06 04:15:20;;;;;;;12.68;9.30;;;;;;;;;;4968945;28;101480;-76
2023/04/06 04:17:49;;;;;;;10.95;9.85;;;;;;;;;;4969452;28;99249;-76
2023/04/06 04:20:16;;;;;;;10.85;9.57;;;;;;;;;;4974388;28;98114;-76
2023/04/06 04:22:42;;;;;;;13.30;10.30;;;;;;;;;;4968719;28;98272;-76
2023/04/06 04:25:09;;;;;;;17.10;11.75;;;;;;;;;;4970760;28;100759;-76
2023/04/06 04:27:42;;;;;;;13.45;11.65;;;;;;;;;;4970952;28;100104;-76
2023/04/06 04:30:08;;;;;;;15.27;10.50;;;;;;;;;;4990128;28;98204;-76
2023/04/06 04:32:35;;;;;;;13.65;11.25;;;;;;;;;;4990571;28;98685;-76
2023/04/06 04:35:04;;;;;;;14.23;12.18;;;;;;;;;;4988221;28;99936;-76
2023/04/06 04:37:36;;;;;;;14.82;11.80;;;;;;;;;;4988612;28;98305;-76
2023/04/06 04:40:03;;;;;;;19.25;11.35;;;;;;;;;;4989087;28;99609;-76
2023/04/06 04:42:38;;;;;;;17.95;11.48;;;;;;;;;;4983324;28;98911;-76
2023/04/06 04:45:08;;;;;;;12.05;10.77;;;;;;;;;;4973403;28;99799;-76
2023/04/06 04:47:37;;;;;;;13.50;10.32;;;;;;;;;;4988200;28;101046;-77
2023/04/06 04:50:05;;;;;;;17.00;11.23;;;;;;;;;;4988350;28;98387;-76
2023/04/06 04:52:33;;;;;;;12.93;10.55;;;;;;;;;;4988596;28;100256;-76
2023/04/06 04:55:12;;;;;;;13.15;10.35;;;;;;;;;;4988826;28;100467;-76
2023/04/06 04:57:42;;;;;;;15.88;11.32;;;;;;;;;;4988340;28;98874;-76
2023/04/06 05:00:08;;;;;;;13.57;11.43;;;;;;;;;;4989135;28;99508;-77
2023/04/06 05:02:37;;;;;;;15.35;11.23;;;;;;;;;;4969925;28;101023;-76
2023/04/06 05:05:23;;;;;;;16.30;10.63;;;;;;;;;;4952053;28;98267;-76
2023/04/06 05:07:51;;;;;;;14.27;11.25;;;;;;;;;;4965260;28;99822;-76
2023/04/06 05:10:38;;;;;;;16.35;12.00;;;;;;;;;;4950806;28;98368;-76
2023/04/06 05:13:04;;;;;;;21.50;11.10;;;;;;;;;;4959623;28;101976;-76
2023/04/06 05:15:31;;;;;;;18.30;12.25;;;;;;;;;;4968286;28;100781;-76
2023/04/06 05:18:04;;;;;;;13.73;11.90;;;;;;;;;;4968862;28;98227;-76
2023/04/06 05:20:34;;;;;;;13.02;11.60;;;;;;;;;;4968576;28;99493;-76
2023/04/06 05:23:00;;;;;;;24.20;12.55;;;;;;;;;;4968339;28;98923;-76
2023/04/06 05:25:27;;;;;;;13.65;11.32;;;;;;;;;;4967569;28;98254;-76
2023/04/06 05:27:59;;;;;;;17.13;11.85;;;;;;;;;;4971213;28;100960;-76
2023/04/06 05:30:31;;;;;;;21.92;12.23;;;;;;;;;;4968831;28;98211;-76
2023/04/06 05:32:58;;;;;;;23.77;12.10;;;;;;;;;;4968401;28;100361;-76
2023/04/06 05:35:29;;;;;;;22.25;12.30;;;;;;;;;;4968591;28;101287;-76
2023/04/06 05:38:00;;;;;;;14.20;12.48;;;;;;;;;;4968181;28;98321;-76
2023/04/06 05:40:26;;;;;;;20.75;12.25;;;;;;;;;;4969031;28;99424;-76
2023/04/06 05:42:53;;;;;;;17.95;12.65;;;;;;;;;;4967942;28;100131;-76
2023/04/06 05:45:20;;;;;;;15.55;13.88;;;;;;;;;;4968384;28;98249;-76
2023/04/06 05:47:51;;;;;;;18.25;11.80;;;;;;;;;;4970341;28;101033;-76
2023/04/06 05:50:22;;;;;;;16.00;12.48;;;;;;;;;;4967580;28;98208;-76
2023/04/06 05:52:49;;;;;;;16.98;12.60;;;;;;;;;;4970569;28;99410;-76
2023/04/06 05:55:19;;;;;;;15.23;13.02;;;;;;;;;;4987306;28;99027;-76
2023/04/06 05:57:52;;;;;;;18.58;12.98;;;;;;;;;;4988198;28;98276;-76
2023/04/06 06:00:20;;;;;;;23.70;13.38;;;;;;;;;;4979483;28;100979;-76
2023/04/06 06:02:56;;;;;;;15.38;13.70;;;;;;;;;;4999922;28;101733;-76
2023/04/06 06:05:28;;;;;;;16.35;13.35;;;;;;;;;;4949621;28;98185;-76
2023/04/06 06:07:58;;;;;;;19.88;13.07;;;;;;;;;;4964018;28;101362;-77
2023/04/06 06:10:25;;;;;;;19.55;13.68;;;;;;;;;;4983887;28;100353;-76
2023/04/06 06:12:51;;;;;;;18.67;13.27;;;;;;;;;;4992955;28;100607;-75
2023/04/06 06:15:18;;;;;;;20.50;15.02;;;;;;;;;;4966079;28;100129;-75
2023/04/06 06:17:46;;;;;;;18.77;14.32;;;;;;;;;;4967550;28;98377;-74
2023/04/06 06:20:13;;;;;;;19.55;13.77;;;;;;;;;;4969190;28;99443;-75
2023/04/06 06:22:41;;;;;;;14.82;13.20;;;;;;;;;;4966996;28;101302;-77
2023/04/06 06:25:12;;;;;;;15.05;13.40;;;;;;;;;;4967975;28;98900;-76
2023/04/06 06:27:39;;;;;;;20.88;14.30;;;;;;;;;;4978851;28;99090;-77
2023/04/06 06:30:05;;;;;;;22.75;14.80;;;;;;;;;;4986353;28;100954;-76
2023/04/06 06:32:33;;;;;;;29.35;14.63;;;;;;;;;;4990684;28;98305;-76
2023/04/06 06:35:00;;;;;;;17.80;13.55;;;;;;;;;;4987134;28;101472;-76
2023/04/06 06:37:27;;;;;;;16.58;13.77;;;;;;;;;;4986342;28;98407;-76
2023/04/06 06:39:56;;;;;;;21.58;15.73;;;;;;;;;;4985728;28;100521;-77
2023/04/06 06:42:22;;;;;;;25.65;15.05;;;;;;;;;;4978371;28;98707;-77
2023/04/06 06:45:03;;;;;;;19.85;14.18;;;;;;;;;;4967071;28;98828;-76
2023/04/06 06:47:30;;;;;;;23.70;13.80;;;;;;;;;;4967447;28;101078;-77
2023/04/06 06:49:56;;;;;;;19.25;15.48;;;;;;;;;;4966243;28;100840;-77
2023/04/06 06:52:23;;;;;;;23.77;15.65;;;;;;;;;;4969005;28;98176;-76
2023/04/06 06:54:50;;;;;;;20.58;15.52;;;;;;;;;;4979146;28;98303;-77
2023/04/06 06:57:18;;;;;;;24.25;16.13;;;;;;;;;;4970950;28;98694;-77
2023/04/06 06:59:46;;;;;;;19.48;14.60;;;;;;;;;;4966546;28;101218;-77
2023/04/06 07:02:12;;;;;;;24.17;15.63;;;;;;;;;;4962121;28;99899;-78
2023/04/06 07:04:38;;;;;;;22.05;15.88;;;;;;;;;;4965509;28;99001;-78
2023/04/06 07:07:05;;;;;;;23.30;15.27;;;;;;;;;;4964422;28;99386;-77
2023/04/06 07:09:32;;;;;;;57.80;32.70;;;;;;;;;;4982459;28;99590;-77
2023/04/06 07:11:58;;;;;;;24.73;15.52;;;;;;;;;;4952411;28;98354;-76
2023/04/06 07:14:24;;;;;;;18.63;14.20;;;;;;;;;;4951468;28;98979;-76
2023/04/06 07:16:51;;;;;;;17.70;15.80;;;;;;;;;;4966896;28;101304;-78
2023/04/06 07:19:17;;;;;;;47.13;28.40;;;;;;;;;;4960535;28;100326;-76
2023/04/06 07:21:44;;;;;;;44.90;26.67;;;;;;;;;;4948083;28;101284;-77
2023/04/06 07:24:11;;;;;;;37.63;20.58;;;;;;;;;;4948871;28;98306;-77
2023/04/06 07:26:37;;;;;;;46.85;25.85;;;;;;;;;;4979477;28;101099;-77
2023/04/06 07:29:03;;;;;;;68.95;35.35;;;;;;;;;;4947931;28;99273;-75
2023/04/06 07:31:30;;;;;;;54.13;29.75;;;;;;;;;;4980710;28;98407;-77
2023/04/06 07:33:56;;;;;;;45.28;24.83;;;;;;;;;;4961273;28;100770;-77
2023/04/06 07:36:23;;;;;;;30.42;19.13;;;;;;;;;;4951768;28;99864;-77
2023/04/06 07:38:49;;;;;;;84.30;45.00;;;;;;;;;;4964609;28;98285;-77
2023/04/06 07:41:16;;;;;;;21.98;16.50;;;;;;;;;;4946402;28;101928;-77
2023/04/06 07:43:43;;;;;;;31.65;16.38;;;;;;;;;;4966325;28;98810;-78
2023/04/06 07:46:10;;;;;;;25.30;16.00;;;;;;;;;;4978271;28;100629;-77
2023/04/06 07:48:37;;;;;;;22.70;16.42;;;;;;;;;;4966108;28;100778;-78
2023/04/06 07:51:04;;;;;;;25.20;16.88;;;;;;;;;;4965987;28;98117;-78
2023/04/06 07:53:34;;;;;;;24.73;17.30;;;;;;;;;;4951261;28;99495;-77
2023/04/06 07:56:01;;;;;;;19.40;16.15;;;;;;;;;;4958534;28;99098;-77
2023/04/06 07:58:27;;;;;;;20.00;15.85;;;;;;;;;;4962835;28;98222;-78
2023/04/06 08:00:55;;;;;;;23.80;16.98;;;;;;;;;;4956016;28;99341;-78
2023/04/06 08:03:25;;;;;;;27.30;17.45;;;;;;;;;;4955525;28;98288;-78
2023/04/06 08:05:52;;;;;;;27.77;17.02;;;;;;;;;;4967492;28;99470;-78
2023/04/06 08:08:20;;;;;;;23.80;18.38;;;;;;;;;;4966933;28;100176;-78
2023/04/06 08:10:48;;;;;;;25.50;16.83;;;;;;;;;;4968861;28;98246;-78
2023/04/06 08:13:15;;;;;;;24.75;17.08;;;;;;;;;;4967739;28;99510;-77
2023/04/06 08:15:42;;;;;;;26.50;17.52;;;;;;;;;;4956566;28;99260;-77
2023/04/06 08:18:09;;;;;;;32.15;20.25;;;;;;;;;;4947228;28;98336;-77
2023/04/06 08:20:35;;;;;;;25.90;16.73;;;;;;;;;;4969364;28;98165;-78
2023/04/06 08:23:02;;;;;;;25.25;16.73;;;;;;;;;;4966573;28;98468;-77
2023/04/06 08:25:29;;;;;;;25.95;18.60;;;;;;;;;;4967727;28;98651;-76
2023/04/06 08:27:56;;;;;;;24.45;17.33;;;;;;;;;;4968435;28;99958;-76
2023/04/06 08:30:22;;;;;;;22.45;18.17;;;;;;;;;;4971395;28;98269;-76
2023/04/06 08:32:48;;;;;;;24.45;18.17;;;;;;;;;;4966731;28;98791;-76
2023/04/06 08:35:15;;;;;;;22.15;17.10;;;;;;;;;;4961144;28;99908;-77
2023/04/06 08:37:42;;;;;;;26.17;18.58;;;;;;;;;;4974532;28;98298;-76
2023/04/06 08:40:08;;;;;;;25.00;18.30;;;;;;;;;;4972028;28;98602;-76
2023/04/06 08:42:39;;;;;;;25.95;17.92;;;;;;;;;;4973164;28;98964;-78
2023/04/06 08:45:05;;;;;;;29.35;18.45;;;;;;;;;;4964333;28;98671;-76
2023/04/06 08:47:33;;;;;;;29.30;18.92;;;;;;;;;;4959599;28;98959;-78
2023/04/06 08:50:03;;;;;;;28.23;16.75;;;;;;;;;;4964277;28;99352;-77
2023/04/06 08:52:31;;;;;;;22.30;17.88;;;;;;;;;;4971365;28;98752;-76
2023/04/06 08:54:57;;;;;;;23.40;17.55;;;;;;;;;;4971075;28;99970;-77
2023/04/06 08:57:24;;;;;;;25.13;19.35;;;;;;;;;;4973198;28;98808;-77
2023/04/06 08:59:52;;;;;;;21.85;17.92;;;;;;;;;;4960957;28;99326;-77
2023/04/06 09:02:19;;;;;;;23.63;18.50;;;;;;;;;;4964194;28;100230;-78
2023/04/06 09:04:46;;;;;;;23.15;19.02;;;;;;;;;;4963584;28;98820;-77
2023/04/06 09:07:12;;;;;;;28.52;19.95;;;;;;;;;;4965021;28;99946;-77
2023/04/06 09:09:43;;;;;;;28.30;19.83;;;;;;;;;;4974194;28;98564;-78
2023/04/06 09:12:12;;;;;;;26.45;19.20;;;;;;;;;;4964967;28;99446;-77
2023/04/06 09:14:38;;;;;;;23.55;18.90;;;;;;;;;;4956655;28;100095;-77
2023/04/06 09:17:05;;;;;;;29.20;19.92;;;;;;;;;;4965476;28;98352;-76
2023/04/06 09:19:31;;;;;;;26.75;19.77;;;;;;;;;;4964945;28;99342;-76
2023/04/06 09:22:04;;;;;;;28.02;19.60;;;;;;;;;;4978080;28;100639;-77
2023/04/06 09:25:00;;;;;;;36.35;19.20;;;;;;;;;;4961200;28;98937;-77
2023/04/06 09:27:34;;;;;;;25.88;19.38;;;;;;;;;;4960767;28;98655;-77
2023/04/06 09:30:04;;;;;;;24.30;20.48;;;;;;;;;;4957119;28;98482;-77
2023/04/06 09:32:31;;;;;;;26.42;19.88;;;;;;;;;;4962185;28;100087;-77
2023/04/06 09:35:10;;;;;;;25.55;18.75;;;;;;;;;;4951175;28;102106;-77
2023/04/06 09:37:36;;;;;;;30.48;19.77;;;;;;;;;;4950351;28;98186;-77
2023/04/06 09:40:03;;;;;;;26.92;18.40;;;;;;;;;;4952983;28;99643;-77
2023/04/06 09:42:30;;;;;;;25.42;19.42;;;;;;;;;;4966127;28;99237;-77
2023/04/06 09:44:57;;;;;;;31.23;19.45;;;;;;;;;;4951088;28;98174;-77
2023/04/06 09:47:26;;;;;;;24.50;19.60;;;;;;;;;;4977849;28;99615;-77
2023/04/06 09:49:58;;;;;;;29.02;19.77;;;;;;;;;;4971279;28;98258;-77
2023/04/06 09:52:51;;;;;;;36.25;18.58;;;;;;;;;;4970308;28;99571;-77
2023/04/06 09:55:22;;;;;;;27.58;19.20;;;;;;;;;;4970585;28;102135;-77
2023/04/06 09:57:48;;;;;;;25.35;19.13;;;;;;;;;;4961424;28;99728;-76
2023/04/06 10:00:18;;;;;;;31.08;20.75;;;;;;;;;;4963731;28;99169;-77
2023/04/06 10:02:49;;;;;;;34.25;20.80;;;;;;;;;;4959062;28;99898;-77
2023/04/06 10:05:15;;;;;;;32.55;20.77;;;;;;;;;;4965896;28;98248;-77
2023/04/06 10:07:42;;;;;;;18.55;12.75;;;;;;;;;;4949826;28;99638;-77
2023/04/06 10:10:25;;;;;;;35.85;21.25;;;;;;;;;;4953742;28;99443;-77
2023/04/06 10:12:51;;;;;;;35.53;22.25;;;;;;;;;;4961124;28;98613;-78
2023/04/06 10:15:18;;;;;;;35.28;19.42;;;;;;;;;;4970700;28;99990;-78
2023/04/06 10:17:48;;;;;;;28.10;19.63;;;;;;;;;;4958229;28;98694;-77
2023/04/06 10:20:17;;;;;;;37.10;18.50;;;;;;;;;;4963638;28;99627;-76
2023/04/06 10:22:52;;;;;;;27.48;17.58;;;;;;;;;;4949770;28;100129;-77
2023/04/06 10:25:26;;;;;;;23.20;15.20;;;;;;;;;;4960001;28;99226;-76
2023/04/06 10:27:58;;;;;;;24.83;15.25;;;;;;;;;;4958838;28;98812;-77
2023/04/06 10:30:25;;;;;;;17.77;15.00;;;;;;;;;;4966788;28;99150;-76
2023/04/06 10:32:51;;;;;;;20.10;15.05;;;;;;;;;;4955103;28;98252;-76
2023/04/06 10:35:18;;;;;;;22.50;14.50;;;;;;;;;;4951487;28;100142;-76
2023/04/06 10:37:49;;;;;;;23.65;14.63;;;;;;;;;;4949602;28;98339;-77
2023/04/06 10:40:19;;;;;;;22.35;15.20;;;;;;;;;;4961715;28;98681;-76
2023/04/06 10:42:46;;;;;;;21.75;15.45;;;;;;;;;;4953705;28;99148;-76
2023/04/06 10:45:19;;;;;;;18.20;13.23;;;;;;;;;;4949635;28;98255;-77
2023/04/06 10:47:46;;;;;;;21.00;13.65;;;;;;;;;;4954957;28;98899;-76
2023/04/06 10:50:14;;;;;;;17.02;13.23;;;;;;;;;;4961144;28;99789;-76
2023/04/06 10:52:41;;;;;;;20.60;11.35;;;;;;;;;;4951879;28;99710;-76
2023/04/06 10:55:10;;;;;;;10.23;9.02;;;;;;;;;;4952841;28;99421;-76
2023/04/06 10:57:36;;;;;;;11.02;9.50;;;;;;;;;;4951237;28;98295;-77
2023/04/06 11:00:05;;;;;;;13.38;10.20;;;;;;;;;;4948459;28;99741;-76
2023/04/06 11:02:32;;;;;;;10.48;8.98;;;;;;;;;;4959720;28;99999;-76
2023/04/06 11:04:58;;;;;;;14.57;10.57;;;;;;;;;;4967621;28;98318;-76
2023/04/06 11:07:26;;;;;;;10.95;8.50;;;;;;;;;;4968586;28;98628;-75
2023/04/06 11:09:53;;;;;;;7.65;6.85;;;;;;;;;;4960770;28;98888;-76
2023/04/06 11:12:39;;;;;;;7.43;6.72;;;;;;;;;;4948144;28;98122;-76
2023/04/06 11:15:06;;;;;;;7.78;7.03;;;;;;;;;;4960693;28;99710;-76
2023/04/06 11:17:36;;;;;;;10.70;6.97;;;;;;;;;;4954306;28;100172;-76
2023/04/06 11:20:04;;;;;;;7.03;6.38;;;;;;;;;;4962154;28;99392;-76
2023/04/06 11:22:30;;;;;;;11.15;7.32;;;;;;;;;;4968176;28;99727;-76
2023/04/06 11:25:06;;;;;;;10.18;6.32;;;;;;;;;;4969887;28;98631;-76
2023/04/06 11:27:33;;;;;;;8.77;6.45;;;;;;;;;;4949499;28;99213;-76
2023/04/06 11:30:00;;;;;;;6.95;6.07;;;;;;;;;;4947566;28;100138;-76
2023/04/06 11:32:27;;;;;;;6.82;6.25;;;;;;;;;;4961469;28;98417;-78
2023/04/06 11:34:53;;;;;;;7.28;6.57;;;;;;;;;;4965197;28;99427;-75
2023/04/06 11:37:20;;;;;;;6.57;5.57;;;;;;;;;;4979876;28;99233;-77
2023/04/06 11:39:49;;;;;;;8.00;7.28;;;;;;;;;;4985089;28;98244;-78
2023/04/06 11:42:25;;;;;;;7.55;6.80;;;;;;;;;;4975368;28;99044;-77
2023/04/06 11:44:53;;;;;;;10.40;6.82;;;;;;;;;;4959075;28;98261;-76
2023/04/06 11:47:21;;;;;;;6.43;5.93;;;;;;;;;;4951954;28;99519;-77
2023/04/06 11:49:48;;;;;;;7.45;6.68;;;;;;;;;;4957291;28;99880;-76
2023/04/06 11:52:19;;;;;;;7.15;6.45;;;;;;;;;;4951815;28;98242;-77
2023/04/06 11:54:46;;;;;;;5.85;5.43;;;;;;;;;;4956709;28;99625;-78
2023/04/06 11:57:12;;;;;;;7.93;6.35;;;;;;;;;;4952790;28;98976;-77
2023/04/06 11:59:38;;;;;;;6.05;5.55;;;;;;;;;;4954483;28;98217;-77
2023/04/06 12:02:05;;;;;;;6.60;6.05;;;;;;;;;;4946756;28;99947;-77
2023/04/06 12:04:32;;;;;;;6.43;5.82;;;;;;;;;;4950380;28;98308;-77
2023/04/06 12:06:58;;;;;;;7.47;6.88;;;;;;;;;;4952413;28;99005;-77
2023/04/06 12:09:25;;;;;;;9.80;5.65;;;;;;;;;;4953096;28;98865;-78
2023/04/06 12:11:51;;;;;;;8.88;7.25;;;;;;;;;;4969679;28;98274;-77
2023/04/06 12:14:17;;;;;;;7.63;6.85;;;;;;;;;;4950965;28;98807;-77
2023/04/06 12:16:45;;;;;;;7.72;7.03;;;;;;;;;;4952829;28;98865;-78
2023/04/06 12:19:12;;;;;;;8.68;7.97;;;;;;;;;;4971414;28;98191;-77
2023/04/06 12:21:38;;;;;;;8.38;7.43;;;;;;;;;;4973636;28;99323;-77
2023/04/06 12:24:05;;;;;;;8.48;6.65;;;;;;;;;;4970856;28;98312;-78
2023/04/06 12:26:32;;;;;;;9.32;7.80;;;;;;;;;;4961688;28;98515;-78
2023/04/06 12:29:04;;;;;;;10.40;7.78;;;;;;;;;;4958960;28;99639;-78
2023/04/06 12:31:31;;;;;;;8.10;7.40;;;;;;;;;;4962950;28;99690;-79
2023/04/06 12:33:57;;;;;;;11.75;8.15;;;;;;;;;;4971141;28;98679;-78
2023/04/06 12:36:24;;;;;;;11.23;8.65;;;;;;;;;;4957131;28;100564;-78
2023/04/06 12:38:51;;;;;;;9.80;8.10;;;;;;;;;;4959568;28;98361;-79
2023/04/06 12:41:17;;;;;;;9.85;8.93;;;;;;;;;;4958721;28;99350;-79
2023/04/06 12:43:44;;;;;;;9.68;8.68;;;;;;;;;;4972605;28;99554;-78
2023/04/06 12:46:11;;;;;;;9.63;8.75;;;;;;;;;;4969419;28;100289;-78
2023/04/06 12:48:37;;;;;;;9.63;8.63;;;;;;;;;;4950347;28;99724;-77
2023/04/06 12:51:05;;;;;;;13.32;9.50;;;;;;;;;;4950170;28;98283;-77
2023/04/06 12:53:32;;;;;;;16.38;10.07;;;;;;;;;;4960165;28;99746;-75
2023/04/06 12:55:59;;;;;;;9.10;8.18;;;;;;;;;;4970768;28;99497;-77
2023/04/06 12:58:29;;;;;;;9.68;8.77;;;;;;;;;;4970435;28;98219;-77
2023/04/06 13:00:57;;;;;;;11.25;8.65;;;;;;;;;;4965343;28;99686;-77
2023/04/06 13:03:24;;;;;;;9.55;8.32;;;;;;;;;;4950901;28;99047;-77
2023/04/06 13:05:50;;;;;;;10.10;8.98;;;;;;;;;;4953685;28;98296;-78
2023/04/06 13:08:18;;;;;;;9.57;8.68;;;;;;;;;;4951234;28;99263;-77
2023/04/06 13:10:46;;;;;;;9.40;8.48;;;;;;;;;;4949695;28;98463;-78
2023/04/06 13:13:16;;;;;;;10.05;9.10;;;;;;;;;;4950521;28;99734;-77
2023/04/06 13:15:42;;;;;;;10.45;8.77;;;;;;;;;;4967627;28;100996;-77
2023/04/06 13:18:09;;;;;;;10.23;9.23;;;;;;;;;;4964142;28;98191;-77
2023/04/06 13:20:35;;;;;;;12.93;9.32;;;;;;;;;;4968112;28;99474;-77
2023/04/06 13:23:02;;;;;;;10.48;8.68;;;;;;;;;;4968593;28;99347;-77
2023/04/06 13:25:29;;;;;;;13.27;9.73;;;;;;;;;;4969095;28;98555;-77
2023/04/06 13:27:55;;;;;;;11.00;9.90;;;;;;;;;;4972570;28;99537;-78
2023/04/06 13:30:22;;;;;;;11.40;10.35;;;;;;;;;;4959326;28;98275;-77
2023/04/06 13:32:48;;;;;;;10.05;9.00;;;;;;;;;;4951561;28;99886;-77
2023/04/06 13:35:15;;;;;;;11.15;9.98;;;;;;;;;;4959041;28;98929;-77
2023/04/06 13:37:41;;;;;;;14.73;10.07;;;;;;;;;;4950231;28;98243;-78
2023/04/06 13:40:07;;;;;;;11.52;10.30;;;;;;;;;;4949826;28;99598;-79
2023/04/06 13:42:35;;;;;;;10.02;9.02;;;;;;;;;;4950870;28;99877;-79
2023/04/06 13:45:01;;;;;;;12.98;10.75;;;;;;;;;;4949292;28;98297;-79
2023/04/06 13:47:28;;;;;;;13.18;10.57;;;;;;;;;;4953641;28;98888;-79
2023/04/06 13:49:55;;;;;;;12.27;10.88;;;;;;;;;;4953194;28;99021;-79
2023/04/06 13:52:21;;;;;;;11.65;10.45;;;;;;;;;;4949406;28;99743;-80
2023/04/06 13:54:50;;;;;;;11.18;10.07;;;;;;;;;;4950554;28;99067;-78
2023/04/06 13:57:17;;;;;;;10.00;9.00;;;;;;;;;;4960428;28;98351;-79
2023/04/06 13:59:43;;;;;;;11.95;10.63;;;;;;;;;;4968262;28;99378;-79
2023/04/06 14:02:14;;;;;;;12.45;10.20;;;;;;;;;;4969492;28;99080;-78
2023/04/06 14:04:41;;;;;;;9.98;9.10;;;;;;;;;;4963590;28;99732;-78
2023/04/06 14:07:08;;;;;;;11.95;10.15;;;;;;;;;;4957725;28;99834;-78
2023/04/06 14:09:35;;;;;;;13.80;11.70;;;;;;;;;;4957847;28;100201;-79
2023/04/06 14:12:01;;;;;;;14.63;9.93;;;;;;;;;;4966792;28;99442;-78
2023/04/06 14:14:27;;;;;;;12.00;10.80;;;;;;;;;;4968134;28;99545;-79
2023/04/06 14:16:54;;;;;;;12.30;10.93;;;;;;;;;;4951436;28;99876;-80
2023/04/06 14:19:21;;;;;;;12.40;10.50;;;;;;;;;;4950501;28;99663;-78
2023/04/06 14:21:48;;;;;;;12.02;9.60;;;;;;;;;;4954080;28;100233;-78
2023/04/06 14:24:15;;;;;;;13.45;10.80;;;;;;;;;;4954055;28;98576;-78
2023/04/06 14:26:42;;;;;;;12.55;10.80;;;;;;;;;;4951814;28;99962;-78